KIXD

New Century Aircenter Airport

Olathe, Kansas, USA
METAR KIXD 180830Z AUTO 20007KT 7SM OVC028 06/06 A3003 RMK AO2 T00610056
Observed Flight Rules
Dec-18 @ 08:30 UTC (24 minutes ago) Marginal Visual Flight Rules
Wind Visibility Clouds
200° at 7 knots 7 miles
  • Overcast at 2,800' AGL
Temperatures Readings
Current 6°C / 43°F
Dewpoint 6°C / 43°F
Humidity 100%
Altimeter 30.03" Hg
Pressure 1017 hPa
Elevation 342
METAR KIXD 180830Z AUTO 20007KT 7SM OVC028 06/06 A3003 RMK AO2 T00610056
Observed Flight Rules
Dec-18 @ 08:30 UTC
(24 minutes ago)
MVFR
Wind Visibility
200° at 7 knots 7 miles
Clouds
  • Overcast at 2,800' AGL
Temperature Dewpoint
6°C / 43°F 6°C / 43°F
Humidity Altimeter Pressure
100% 30.03" Hg 1017 hPa